createdAt,value
2022-09-07T00:01:03.681Z,15.2
2022-09-07T00:02:08.360Z,15.2
2022-09-07T00:03:12.945Z,15.1
2022-09-07T00:04:17.269Z,15.1
2022-09-07T00:05:23.532Z,15.2
2022-09-07T00:06:28.113Z,15.2
2022-09-07T00:07:32.876Z,15.2
2022-09-07T00:08:39.699Z,15.2
2022-09-07T00:09:44.501Z,15.2
2022-09-07T00:10:49.072Z,15.2
2022-09-07T00:11:58.365Z,15.1
2022-09-07T00:13:03.104Z,15.1
2022-09-07T00:14:07.807Z,15.2
2022-09-07T00:15:12.483Z,15.2
2022-09-07T00:16:17.056Z,15.2
2022-09-07T00:17:27.217Z,15.2
2022-09-07T00:18:31.776Z,15.2
2022-09-07T00:19:35.999Z,15.1
2022-09-07T00:20:43.753Z,15
2022-09-07T00:21:48.285Z,15
2022-09-07T00:22:52.656Z,15
2022-09-07T00:23:56.848Z,15
2022-09-07T00:25:02.205Z,15
2022-09-07T00:26:06.948Z,15
2022-09-07T00:27:11.992Z,15
2022-09-07T00:28:16.628Z,15
2022-09-07T00:29:21.114Z,14.9
2022-09-07T00:30:26.575Z,14.9
2022-09-07T00:31:30.035Z,14.9
2022-09-07T00:32:34.440Z,14.9
2022-09-07T00:33:39.059Z,14.9
2022-09-07T00:34:43.529Z,14.9
2022-09-07T00:35:47.980Z,14.9
2022-09-07T00:36:52.336Z,14.9
2022-09-07T00:37:56.733Z,14.9
2022-09-07T00:39:01.134Z,14.8
2022-09-07T00:40:05.775Z,14.8
2022-09-07T00:41:10.310Z,14.9
2022-09-07T00:42:19.392Z,14.9
2022-09-07T00:43:24.028Z,14.9
2022-09-07T00:44:36.400Z,14.8
2022-09-07T00:45:43.640Z,14.8
2022-09-07T00:46:48.214Z,14.9
2022-09-07T00:47:52.419Z,14.9
2022-09-07T00:48:56.864Z,14.9
2022-09-07T00:50:09.017Z,14.8
2022-09-07T00:51:18.383Z,14.8
2022-09-07T00:52:25.460Z,14.8
2022-09-07T00:53:29.980Z,14.8
2022-09-07T00:54:39.780Z,14.8
2022-09-07T00:55:44.336Z,14.7
2022-09-07T00:56:48.703Z,14.8
2022-09-07T00:57:55.746Z,14.8
2022-09-07T00:59:00.243Z,14.8
2022-09-07T01:00:04.513Z,14.8
2022-09-07T01:01:09.607Z,14.8
2022-09-07T01:02:18.163Z,14.8
2022-09-07T01:03:22.328Z,14.8
2022-09-07T01:04:27.032Z,14.8
2022-09-07T01:05:31.508Z,14.8
2022-09-07T01:06:44.060Z,14.8
2022-09-07T01:07:48.840Z,14.8
2022-09-07T01:08:53.104Z,14.8
2022-09-07T01:09:57.283Z,14.8
2022-09-07T01:11:01.961Z,14.6
2022-09-07T01:13:15.480Z,14.7
2022-09-07T01:14:20.092Z,14.7
2022-09-07T01:15:24.844Z,14.6
2022-09-07T01:16:31.965Z,14.6
2022-09-07T01:17:43.588Z,14.6
2022-09-07T01:18:47.948Z,14.6
2022-09-07T01:19:57.389Z,14.6
2022-09-07T01:21:11.962Z,14.6
2022-09-07T01:22:19.356Z,14.5
2022-09-07T01:23:26.844Z,14.6
2022-09-07T01:24:36.413Z,14.6
2022-09-07T01:25:45.968Z,14.5
2022-09-07T01:27:00.724Z,14.5
2022-09-07T01:28:15.583Z,14.5
2022-09-07T01:29:25.059Z,14.5
2022-09-07T01:30:31.967Z,14.5
2022-09-07T01:31:39.648Z,14.5
2022-09-07T01:32:47.420Z,14.5
2022-09-07T01:33:56.956Z,14.5
2022-09-07T01:35:06.122Z,14.5
2022-09-07T01:36:15.589Z,14.4
2022-09-07T01:37:28.520Z,14.4
2022-09-07T01:38:38.079Z,14.4
2022-09-07T01:39:46.000Z,14.4
2022-09-07T01:40:56.252Z,14.4
2022-09-07T01:42:07.093Z,14.2
2022-09-07T01:43:11.900Z,14.3
2022-09-07T01:44:22.170Z,14.3
2022-09-07T01:45:31.747Z,14.3
2022-09-07T01:46:36.507Z,14.2
2022-09-07T01:47:41.117Z,14.2
2022-09-07T01:48:45.903Z,14.2
2022-09-07T01:49:50.375Z,14.2
2022-09-07T01:51:06.144Z,14.1
2022-09-07T01:52:10.504Z,14.1
2022-09-07T01:53:18.104Z,14.1
2022-09-07T01:54:27.627Z,14.1
2022-09-07T01:55:44.184Z,14.1
2022-09-07T01:56:53.823Z,14.1
2022-09-07T01:57:58.396Z,14.1
2022-09-07T01:59:03.239Z,14.1
2022-09-07T02:00:10.926Z,14.1
2022-09-07T02:01:15.572Z,13.9
2022-09-07T02:02:27.162Z,13.9
2022-09-07T02:03:31.628Z,13.9
2022-09-07T02:04:46.160Z,13.9
2022-09-07T02:05:53.231Z,14
2022-09-07T02:07:00.248Z,14
2022-09-07T02:08:17.228Z,14
2022-09-07T02:09:27.044Z,14
2022-09-07T02:10:31.595Z,14
2022-09-07T02:11:38.124Z,14
2022-09-07T02:12:42.611Z,14
2022-09-07T02:13:52.407Z,14
2022-09-07T02:15:01.859Z,13.9
2022-09-07T02:16:06.898Z,13.9
2022-09-07T02:17:11.244Z,13.9
2022-09-07T02:18:20.696Z,13.8
2022-09-07T02:19:28.771Z,13.8
2022-09-07T02:20:33.291Z,13.8
2022-09-07T02:21:37.816Z,13.7
2022-09-07T02:22:42.328Z,13.7
2022-09-07T02:23:46.936Z,13.7
2022-09-07T02:24:51.488Z,13.6
2022-09-07T02:25:56.287Z,13.6
2022-09-07T02:27:00.699Z,13.6
2022-09-07T02:28:05.144Z,13.7
2022-09-07T02:29:09.675Z,13.7
2022-09-07T02:30:14.132Z,13.6
2022-09-07T02:31:18.944Z,13.6
2022-09-07T02:32:23.176Z,13.7
2022-09-07T02:33:27.427Z,13.7
2022-09-07T02:34:31.851Z,13.6
2022-09-07T02:35:36.444Z,13.7
2022-09-07T02:36:41.223Z,13.6
2022-09-07T02:37:45.813Z,13.6
2022-09-07T02:38:50.395Z,13.6
2022-09-07T02:39:54.992Z,13.6
2022-09-07T02:40:59.219Z,13.6
2022-09-07T02:42:06.819Z,13.6
2022-09-07T02:43:11.271Z,13.6
2022-09-07T02:44:15.727Z,13.6
2022-09-07T02:45:20.419Z,13.6
2022-09-07T02:46:26.045Z,13.7
2022-09-07T02:47:40.635Z,13.6
2022-09-07T02:48:55.216Z,13.5
2022-09-07T02:50:09.859Z,13.5
2022-09-07T02:51:18.259Z,13.5
2022-09-07T02:52:32.892Z,13.5
2022-09-07T02:53:42.383Z,13.5
2022-09-07T02:55:00.327Z,13.6
2022-09-07T02:56:14.940Z,13.6
2022-09-07T02:57:27.223Z,13.5
2022-09-07T02:58:34.492Z,13.4
2022-09-07T02:59:44.612Z,13.5
2022-09-07T03:00:51.715Z,13.4
2022-09-07T03:02:06.528Z,13.4
2022-09-07T03:03:16.699Z,13.4
2022-09-07T03:04:24.275Z,13.4
2022-09-07T03:05:36.559Z,13.4
2022-09-07T03:06:40.756Z,13.4
2022-09-07T03:07:52.203Z,13.4
2022-09-07T03:08:56.517Z,13.4
2022-09-07T03:10:01.167Z,13.4
2022-09-07T03:11:07.173Z,13.3
2022-09-07T03:12:14.323Z,13.2
2022-09-07T03:13:19.304Z,13.3
2022-09-07T03:14:23.772Z,13.3
2022-09-07T03:15:28.445Z,13.3
2022-09-07T03:16:33.719Z,13.3
2022-09-07T03:17:38.643Z,13.3
2022-09-07T03:18:43.440Z,13.2
2022-09-07T03:19:48.111Z,13.2
2022-09-07T03:20:52.583Z,13.2
2022-09-07T03:21:56.971Z,13.3
2022-09-07T03:23:01.499Z,13.3
2022-09-07T03:24:06.147Z,13.3
2022-09-07T03:25:10.520Z,13.4
2022-09-07T03:26:17.755Z,13.3
2022-09-07T03:27:28.187Z,13.4
2022-09-07T03:28:35.759Z,13.4
2022-09-07T03:29:42.065Z,13.4
2022-09-07T03:30:44.942Z,13.4
2022-09-07T03:31:49.303Z,13.4
2022-09-07T03:32:53.661Z,13.4
2022-09-07T03:33:58.035Z,13.4
2022-09-07T03:35:02.711Z,13.4
2022-09-07T03:36:08.554Z,13.4
2022-09-07T03:37:15.677Z,13.4
2022-09-07T03:39:24.507Z,13.4
2022-09-07T03:40:33.296Z,13.4
2022-09-07T03:41:37.727Z,13.4
2022-09-07T03:42:42.183Z,13.4
2022-09-07T03:43:49.558Z,13.4
2022-09-07T03:44:53.927Z,13.4
2022-09-07T03:45:58.451Z,13.4
2022-09-07T03:47:03.000Z,13.4
2022-09-07T03:48:12.611Z,13.4
2022-09-07T03:49:17.076Z,13.4
2022-09-07T03:50:21.902Z,13.4
2022-09-07T03:51:26.575Z,13.4
2022-09-07T03:52:30.975Z,13.4
2022-09-07T03:53:35.263Z,13.4
2022-09-07T03:54:44.139Z,13.4
2022-09-07T03:55:49.463Z,13.4
2022-09-07T03:56:59.615Z,13.4
2022-09-07T03:58:04.175Z,13.4
2022-09-07T03:59:08.644Z,13.4
2022-09-07T04:00:13.007Z,13.4
2022-09-07T04:01:17.581Z,13.4
2022-09-07T04:02:25.006Z,13.4
2022-09-07T04:03:32.369Z,13.4
2022-09-07T04:04:36.829Z,13.4
2022-09-07T04:05:41.496Z,13.5
2022-09-07T04:06:46.131Z,13.5
2022-09-07T04:07:50.631Z,13.4
2022-09-07T04:08:55.309Z,13.4
2022-09-07T04:10:04.991Z,13.5
2022-09-07T04:11:09.620Z,13.3
2022-09-07T04:12:14.115Z,13.3
2022-09-07T04:13:23.531Z,13.4
2022-09-07T04:14:28.647Z,13.4
2022-09-07T04:15:33.232Z,13.4
2022-09-07T04:16:37.861Z,13.4
2022-09-07T04:17:42.151Z,13.4
2022-09-07T04:18:46.979Z,13.4
2022-09-07T04:19:51.720Z,13.4
2022-09-07T04:20:56.175Z,13.4
2022-09-07T04:22:00.895Z,13.4
2022-09-07T04:23:08.059Z,13.3
2022-09-07T04:24:12.831Z,13.3
2022-09-07T04:25:17.191Z,13.3
2022-09-07T04:26:21.739Z,13.2
2022-09-07T04:27:26.265Z,13.2
2022-09-07T04:28:30.750Z,13.1
2022-09-07T04:29:34.971Z,13.1
2022-09-07T04:30:39.440Z,13.1
2022-09-07T04:31:47.897Z,13.1
2022-09-07T04:32:52.519Z,13.1
2022-09-07T04:33:57.252Z,13.1
2022-09-07T04:35:01.985Z,13.1
2022-09-07T04:36:06.526Z,13.1
2022-09-07T04:37:10.876Z,13.1
2022-09-07T04:38:15.130Z,13.1
2022-09-07T04:39:19.697Z,13.2
2022-09-07T04:40:24.311Z,13.2
2022-09-07T04:41:28.715Z,13.1
2022-09-07T04:42:37.359Z,13.1
2022-09-07T04:43:41.835Z,13
2022-09-07T04:44:46.355Z,13
2022-09-07T04:45:50.829Z,13
2022-09-07T04:46:55.368Z,13
2022-09-07T04:47:59.811Z,13
2022-09-07T04:49:04.536Z,13
2022-09-07T04:50:14.159Z,13
2022-09-07T04:51:21.759Z,13
2022-09-07T04:52:26.395Z,12.9
2022-09-07T04:53:30.983Z,12.9
2022-09-07T04:55:39.404Z,13
2022-09-07T04:56:44.043Z,12.9
2022-09-07T04:57:48.458Z,12.8
2022-09-07T04:58:53.194Z,12.9
2022-09-07T04:59:58.863Z,12.9
2022-09-07T05:01:03.425Z,12.9
2022-09-07T05:02:12.597Z,12.8
2022-09-07T05:03:17.095Z,12.8
2022-09-07T05:04:21.711Z,12.7
2022-09-07T05:05:26.139Z,12.6
2022-09-07T05:06:31.307Z,12.6
2022-09-07T05:07:35.611Z,12.7
2022-09-07T05:08:40.355Z,12.7
2022-09-07T05:09:45.009Z,12.8
2022-09-07T05:10:49.470Z,12.9
2022-09-07T05:11:53.964Z,12.9
2022-09-07T05:13:00.574Z,12.9
2022-09-07T05:14:04.790Z,12.9
2022-09-07T05:15:09.355Z,12.9
2022-09-07T05:16:13.772Z,12.9
2022-09-07T05:17:18.479Z,12.8
2022-09-07T05:18:23.119Z,12.9
2022-09-07T05:19:27.411Z,12.9
2022-09-07T05:20:31.863Z,12.9
2022-09-07T05:21:36.246Z,12.9
2022-09-07T05:22:40.798Z,12.9
2022-09-07T05:23:45.272Z,12.9
2022-09-07T05:24:49.915Z,12.9
2022-09-07T05:25:54.390Z,12.9
2022-09-07T05:26:59.150Z,13
2022-09-07T05:28:03.669Z,12.9
2022-09-07T05:31:17.623Z,12.9
2022-09-07T05:32:22.147Z,12.9
2022-09-07T05:34:33.399Z,12.9
2022-09-07T05:35:37.630Z,13
2022-09-07T05:36:42.046Z,13
2022-09-07T05:37:46.630Z,13
2022-09-07T05:38:51.305Z,13.1
2022-09-07T05:39:56.085Z,13.1
2022-09-07T05:41:00.698Z,13.1
2022-09-07T05:42:10.234Z,13.2
2022-09-07T05:43:14.960Z,13.2
2022-09-07T05:45:23.906Z,13.2
2022-09-07T05:46:28.370Z,13.3
2022-09-07T05:47:34.413Z,13.3
2022-09-07T05:48:39.033Z,13.4
2022-09-07T05:49:43.550Z,13.4
2022-09-07T05:50:53.293Z,13.4
2022-09-07T05:51:57.593Z,13.4
2022-09-07T05:53:01.854Z,13.5
2022-09-07T05:54:06.394Z,13.5
2022-09-07T05:55:29.189Z,13.5
2022-09-07T05:56:17.118Z,13.6
2022-09-07T05:57:21.574Z,13.6
2022-09-07T05:58:27.027Z,13.7
2022-09-07T05:59:31.706Z,13.6
2022-09-07T06:00:40.595Z,13.6
2022-09-07T06:01:49.505Z,13.7
2022-09-07T06:02:54.233Z,13.6
2022-09-07T06:03:58.879Z,13.7
2022-09-07T06:05:03.394Z,13.7
2022-09-07T06:06:08.041Z,13.8
2022-09-07T06:07:23.870Z,13.8
2022-09-07T06:08:21.121Z,13.8
2022-09-07T06:09:30.590Z,13.9
2022-09-07T06:10:49.169Z,14
2022-09-07T06:11:38.153Z,14
2022-09-07T06:12:44.350Z,14.1
2022-09-07T06:13:47.369Z,14.2
2022-09-07T06:14:52.030Z,14.2
2022-09-07T06:16:00.923Z,14.3
2022-09-07T06:17:05.249Z,14.4
2022-09-07T06:18:10.087Z,14.4
2022-09-07T06:19:15.050Z,14.4
2022-09-07T06:20:19.742Z,14.4
2022-09-07T06:21:24.277Z,14.5
2022-09-07T06:22:31.083Z,14.5
2022-09-07T06:23:37.186Z,14.6
2022-09-07T06:24:41.945Z,14.7
2022-09-07T06:25:46.653Z,14.7
2022-09-07T06:26:51.497Z,14.8
2022-09-07T06:28:00.594Z,14.8
2022-09-07T06:29:05.309Z,14.7
2022-09-07T06:30:14.094Z,14.7
2022-09-07T06:31:18.972Z,14.9
2022-09-07T06:33:27.456Z,15
2022-09-07T06:34:31.713Z,15
2022-09-07T06:35:36.330Z,15
2022-09-07T06:36:40.658Z,15.1
2022-09-07T06:37:44.913Z,15.2
2022-09-07T06:38:50.046Z,15.3
2022-09-07T06:39:54.431Z,15.3
2022-09-07T06:42:03.206Z,15.4
2022-09-07T06:43:07.861Z,15.4
2022-09-07T06:44:12.655Z,15.5
2022-09-07T06:45:17.114Z,15.4
2022-09-07T06:47:30.061Z,15.6
2022-09-07T06:48:36.563Z,15.7
2022-09-07T06:49:41.021Z,15.8
2022-09-07T06:50:45.310Z,15.9
2022-09-07T06:51:58.233Z,16
2022-09-07T06:55:12.864Z,16.1
2022-09-07T06:56:17.558Z,16.2
2022-09-07T06:57:22.199Z,16.3
2022-09-07T06:58:26.698Z,16.3
2022-09-07T06:59:31.029Z,16.3
2022-09-07T07:00:35.457Z,16.4
2022-09-07T07:01:39.697Z,16.4
2022-09-07T07:02:44.170Z,16.5
2022-09-07T07:03:48.682Z,16.5
2022-09-07T07:04:53.153Z,16.5
2022-09-07T07:05:59.846Z,16.6
2022-09-07T07:07:04.397Z,16.7
2022-09-07T07:08:11.774Z,16.8
2022-09-07T07:09:16.172Z,16.8
2022-09-07T07:10:24.429Z,16.8
2022-09-07T07:11:24.677Z,16.9
2022-09-07T07:13:34.250Z,17
2022-09-07T07:14:44.849Z,17
2022-09-07T07:15:46.885Z,17.1
2022-09-07T07:16:51.485Z,17.2
2022-09-07T07:18:09.416Z,17.3
2022-09-07T07:19:03.741Z,17.3
2022-09-07T07:20:09.999Z,17.3
2022-09-07T07:21:14.722Z,17.4
2022-09-07T07:22:42.880Z,17.6
2022-09-07T07:23:27.683Z,17.6
2022-09-07T07:24:32.325Z,17.7
2022-09-07T07:25:36.897Z,17.7
2022-09-07T07:26:41.294Z,17.6
2022-09-07T07:27:49.522Z,17.7
2022-09-07T07:29:02.108Z,17.8
2022-09-07T07:30:02.569Z,17.5
2022-09-07T07:31:11.213Z,17.7
2022-09-07T07:32:12.285Z,17.6
2022-09-07T07:34:20.339Z,18.1
2022-09-07T07:35:24.903Z,18.2
2022-09-07T07:36:29.238Z,18.3
2022-09-07T07:37:34.026Z,18.3
2022-09-07T07:41:56.398Z,18.2
2022-09-07T07:42:59.345Z,18.2
2022-09-07T07:44:03.827Z,18.2
2022-09-07T07:46:16.368Z,18.4
2022-09-07T07:47:20.884Z,18.5
2022-09-07T07:48:25.327Z,18.7
2022-09-07T07:49:29.816Z,18.8
2022-09-07T07:50:34.599Z,18.9
2022-09-07T07:52:50.362Z,19
2022-09-07T07:53:53.377Z,19.1
2022-09-07T07:54:57.516Z,19.1
2022-09-07T07:56:01.886Z,19.2
2022-09-07T07:57:06.479Z,19.3
2022-09-07T07:58:11.577Z,19.3
2022-09-07T07:59:16.146Z,19.4
2022-09-07T08:00:31.925Z,19.4
2022-09-07T08:01:25.255Z,19.4
2022-09-07T08:02:33.031Z,19.4
2022-09-07T08:03:37.445Z,19.6
2022-09-07T08:04:42.096Z,19.7
2022-09-07T08:05:46.790Z,19.8
2022-09-07T08:06:51.569Z,19.6
2022-09-07T08:07:56.196Z,19.6
2022-09-07T08:09:05.269Z,19.8
2022-09-07T08:10:13.641Z,19.9
2022-09-07T08:11:18.132Z,20
2022-09-07T08:12:25.545Z,20
2022-09-07T08:13:27.365Z,20.1
2022-09-07T08:14:31.648Z,19.7
2022-09-07T08:15:36.032Z,20
2022-09-07T08:16:40.439Z,20.2
2022-09-07T08:17:44.948Z,20.2
2022-09-07T08:18:49.408Z,20.2
2022-09-07T08:19:53.917Z,20.3
2022-09-07T08:20:58.989Z,20.4
2022-09-07T08:22:03.661Z,20.4
2022-09-07T08:23:08.280Z,20.5
2022-09-07T08:24:13.021Z,20.4
2022-09-07T08:25:17.607Z,20.5
2022-09-07T08:26:27.146Z,20.6
2022-09-07T08:27:31.521Z,20.7
2022-09-07T08:28:36.000Z,20.7
2022-09-07T08:29:40.800Z,20.8
2022-09-07T08:30:45.352Z,20.8
2022-09-07T08:31:49.791Z,20.6
2022-09-07T08:32:54.493Z,20.7
2022-09-07T08:33:58.940Z,20.7
2022-09-07T08:35:03.290Z,20.8
2022-09-07T08:36:08.185Z,20.8
2022-09-07T08:37:17.328Z,20.6
2022-09-07T08:38:21.920Z,20.5
2022-09-07T08:39:26.461Z,20.7
2022-09-07T08:40:31.660Z,20.8
2022-09-07T08:41:36.408Z,20.9
2022-09-07T08:42:46.237Z,21
2022-09-07T08:43:58.948Z,21
2022-09-07T08:45:04.088Z,21
2022-09-07T08:46:15.421Z,21.1
2022-09-07T08:47:22.468Z,21.1
2022-09-07T08:48:41.208Z,21.3
2022-09-07T08:49:45.684Z,21.1
2022-09-07T08:51:00.363Z,21.4
2022-09-07T08:52:09.897Z,21.5
2022-09-07T08:53:14.724Z,21.5
2022-09-07T08:55:22.681Z,21.6
2022-09-07T08:56:33.550Z,21.7
2022-09-07T08:57:37.444Z,21.7
2022-09-07T08:58:49.029Z,21.7
2022-09-07T08:59:50.292Z,21.8
2022-09-07T09:02:35.363Z,21.4
2022-09-07T09:03:30.218Z,21.3
2022-09-07T09:04:31.074Z,21.2
2022-09-07T09:05:34.691Z,21.2
2022-09-07T09:06:42.371Z,21.4
2022-09-07T09:07:52.904Z,21.6
2022-09-07T09:09:00.107Z,21.8
2022-09-07T09:10:09.876Z,21.9
2022-09-07T09:11:21.369Z,21.7
2022-09-07T09:12:28.580Z,21.5
2022-09-07T09:13:43.204Z,21.7
2022-09-07T09:15:00.852Z,21.8
2022-09-07T09:16:05.218Z,21.9
2022-09-07T09:17:12.868Z,21.8
2022-09-07T09:18:17.920Z,22
2022-09-07T09:19:23.286Z,22.1
2022-09-07T09:20:35.912Z,22
2022-09-07T09:21:45.631Z,22
2022-09-07T09:22:50.447Z,22.2
2022-09-07T09:23:54.910Z,22.2
2022-09-07T09:25:01.802Z,22.3
2022-09-07T09:26:19.200Z,22.4
2022-09-07T09:27:26.592Z,22.5
2022-09-07T09:28:34.399Z,22.5
2022-09-07T09:29:40.804Z,22.5
2022-09-07T09:30:45.099Z,22.6
2022-09-07T09:31:49.572Z,22.6
2022-09-07T09:32:53.956Z,22.5
2022-09-07T09:34:08.543Z,22.6
2022-09-07T09:35:15.768Z,22.4
2022-09-07T09:36:25.784Z,22.5
2022-09-07T09:37:30.383Z,22.7
2022-09-07T09:38:37.975Z,22.8
2022-09-07T09:39:42.461Z,22.9
2022-09-07T09:40:46.873Z,23
2022-09-07T09:41:53.324Z,23
2022-09-07T09:43:00.647Z,23
2022-09-07T09:44:05.207Z,23
2022-09-07T09:45:09.804Z,23.1
2022-09-07T09:46:18.801Z,23.2
2022-09-07T09:47:33.634Z,23.1
2022-09-07T09:48:38.019Z,23.2
2022-09-07T09:49:42.392Z,23.1
2022-09-07T09:52:59.387Z,23.2
2022-09-07T09:54:08.500Z,23.2
2022-09-07T09:55:34.248Z,23.2
2022-09-07T09:56:30.901Z,23.2
2022-09-07T09:57:38.503Z,23.3
2022-09-07T10:00:08.690Z,23.2
2022-09-07T10:01:26.782Z,23
2022-09-07T10:04:34.263Z,23.2
2022-09-07T10:05:38.891Z,23.4
2022-09-07T10:06:43.104Z,23.6
2022-09-07T10:07:50.435Z,23.7
2022-09-07T10:08:54.979Z,23.7
2022-09-07T10:09:59.516Z,23.8
2022-09-07T10:11:04.092Z,23.7
2022-09-07T10:12:08.867Z,23.8
2022-09-07T10:13:20.728Z,23.9
2022-09-07T10:14:25.483Z,23.8
2022-09-07T10:15:41.191Z,23.5
2022-09-07T10:16:44.548Z,23.8
2022-09-07T10:17:48.991Z,23.8
2022-09-07T10:18:53.359Z,24
2022-09-07T10:19:58.747Z,24
2022-09-07T10:21:08.348Z,24.1
2022-09-07T10:22:16.183Z,24.2
2022-09-07T10:23:26.544Z,24.3
2022-09-07T10:24:31.144Z,24.3
2022-09-07T10:25:36.051Z,24.3
2022-09-07T10:26:40.739Z,24.3
2022-09-07T10:27:45.431Z,24.4
2022-09-07T10:30:06.664Z,24.6
2022-09-07T10:31:15.216Z,24.6
2022-09-07T10:32:23.203Z,24.7
2022-09-07T10:33:32.748Z,24.6
2022-09-07T10:34:42.208Z,24.5
2022-09-07T10:35:47.837Z,24.6
2022-09-07T10:36:54.697Z,24.6
2022-09-07T10:38:06.359Z,24.5
2022-09-07T10:39:15.967Z,24.5
2022-09-07T10:40:30.467Z,24.5
2022-09-07T10:41:41.380Z,24.5
2022-09-07T10:45:04.591Z,24.6
2022-09-07T10:46:56.145Z,24.8
2022-09-07T10:47:26.632Z,24.8
2022-09-07T10:48:32.188Z,24.9
2022-09-07T10:50:21.759Z,24.9
2022-09-07T10:50:54.239Z,24.9
2022-09-07T10:52:01.433Z,24.5
2022-09-07T10:53:36.860Z,24.6
2022-09-07T10:54:35.762Z,24.6
2022-09-07T10:55:32.219Z,24.9
2022-09-07T10:56:36.594Z,24.7
2022-09-07T10:57:53.930Z,24.5
2022-09-07T10:59:08.384Z,24.6
2022-09-07T11:00:18.043Z,24.8
2022-09-07T11:01:22.423Z,24.8
2022-09-07T11:02:37.436Z,24.8
2022-09-07T11:03:50.492Z,24.6
2022-09-07T11:04:58.275Z,24.5
2022-09-07T11:06:05.547Z,24.4
2022-09-07T11:07:15.756Z,24.8
2022-09-07T11:08:27.746Z,24.9
2022-09-07T11:09:42.252Z,25.1
2022-09-07T11:10:53.270Z,24.5
2022-09-07T11:12:03.558Z,24.7
2022-09-07T11:13:09.707Z,24.9
2022-09-07T11:14:14.186Z,25
2022-09-07T11:15:20.363Z,25
2022-09-07T11:17:42.615Z,25.2
2022-09-07T11:18:50.102Z,25.3
2022-09-07T11:20:04.911Z,25.3
2022-09-07T11:21:14.872Z,25.3
2022-09-07T11:22:19.251Z,25.2
2022-09-07T11:23:26.779Z,25.2
2022-09-07T11:24:41.411Z,25.3
2022-09-07T11:25:49.139Z,25.3
2022-09-07T11:27:06.196Z,25.4
2022-09-07T11:28:15.399Z,25.4
2022-09-07T11:29:29.458Z,25.4
2022-09-07T11:30:35.763Z,25.1
2022-09-07T11:32:52.339Z,25.2
2022-09-07T11:35:19.455Z,25.4
2022-09-07T11:36:31.023Z,25.5
2022-09-07T11:37:35.919Z,25.5
2022-09-07T11:38:43.591Z,25.4
2022-09-07T11:39:58.249Z,25.5
2022-09-07T11:41:08.556Z,25.1
2022-09-07T11:43:31.346Z,25.1
2022-09-07T11:44:36.440Z,25.2
2022-09-07T11:45:41.203Z,25.4
2022-09-07T11:46:45.803Z,25.4
2022-09-07T11:47:52.063Z,25.5
2022-09-07T11:49:04.319Z,25.5
2022-09-07T11:50:10.331Z,25.6
2022-09-07T11:51:17.684Z,25.5
2022-09-07T11:52:22.447Z,25.5
2022-09-07T11:53:29.723Z,25.6
2022-09-07T11:54:34.035Z,25.5
2022-09-07T11:55:38.578Z,25.5
2022-09-07T11:56:47.667Z,25.5
2022-09-07T11:57:55.415Z,25.6
2022-09-07T11:59:06.535Z,25
2022-09-07T12:00:18.776Z,25.3
2022-09-07T12:01:28.352Z,25.2
2022-09-07T12:02:58.637Z,25.1
2022-09-07T12:03:58.425Z,25
2022-09-07T12:05:07.912Z,24.9
2022-09-07T12:06:20.253Z,24.8
2022-09-07T12:07:34.790Z,25
2022-09-07T12:08:46.964Z,24.7
2022-09-07T12:09:58.767Z,24.4
2022-09-07T12:11:13.444Z,24.9
2022-09-07T12:12:23.066Z,25.1
2022-09-07T12:13:37.683Z,25.2
2022-09-07T12:14:52.785Z,24.8
2022-09-07T12:15:59.683Z,24.9
2022-09-07T12:17:14.416Z,25.1
2022-09-07T12:18:29.288Z,25.1
2022-09-07T12:19:44.187Z,25.1
2022-09-07T12:20:48.766Z,25.2
2022-09-07T12:21:53.347Z,25.3
2022-09-07T12:23:01.011Z,25.3
2022-09-07T12:24:06.956Z,25.3
2022-09-07T12:25:23.512Z,25.2
2022-09-07T12:26:28.004Z,25.2
2022-09-07T12:27:35.454Z,25.3
2022-09-07T12:28:39.983Z,25.5
2022-09-07T12:29:45.651Z,25.6
2022-09-07T12:30:57.956Z,25.1
2022-09-07T12:32:53.352Z,24.8
2022-09-07T12:33:09.743Z,24.9
2022-09-07T12:34:19.444Z,25.2
2022-09-07T12:35:33.452Z,25.3
2022-09-07T12:36:37.784Z,25.3
2022-09-07T12:37:42.243Z,25.2
2022-09-07T12:38:47.071Z,25.3
2022-09-07T12:40:01.780Z,25.4
2022-09-07T12:42:38.167Z,24.9
2022-09-07T12:43:29.607Z,25
2022-09-07T12:44:36.985Z,25.1
2022-09-07T12:45:41.664Z,24.9
2022-09-07T12:46:46.910Z,24.9
2022-09-07T12:47:54.112Z,24.7
2022-09-07T12:48:58.527Z,24.6
2022-09-07T12:50:10.054Z,24.4
2022-09-07T12:51:59.261Z,24.7
2022-09-07T12:52:25.931Z,24.9
2022-09-07T12:53:33.112Z,24.8
2022-09-07T12:54:43.435Z,25
2022-09-07T12:58:23.803Z,25.1
2022-09-07T12:59:36.711Z,25
2022-09-07T13:00:43.686Z,25.1
2022-09-07T13:02:01.122Z,24.8
2022-09-07T13:03:49.314Z,24.7
2022-09-07T13:04:23.077Z,24.3
2022-09-07T13:05:37.151Z,24.4
2022-09-07T13:08:08.558Z,24.7
2022-09-07T13:09:19.123Z,24.9
2022-09-07T13:10:32.056Z,25.1
2022-09-07T13:11:37.605Z,25.1
2022-09-07T13:12:57.719Z,25.1
2022-09-07T13:14:57.652Z,25.3
2022-09-07T13:16:03.706Z,25.3
2022-09-07T13:17:22.068Z,25.4
2022-09-07T13:18:21.247Z,25.5
2022-09-07T13:19:30.050Z,25.5
2022-09-07T13:20:44.539Z,25.5
2022-09-07T13:21:52.615Z,25.3
2022-09-07T13:22:57.089Z,25.2
2022-09-07T13:24:45.470Z,25.3
2022-09-07T13:25:16.403Z,25.2
2022-09-07T13:26:23.783Z,25.4
2022-09-07T13:27:40.168Z,25.4
2022-09-07T13:28:57.968Z,25.5
2022-09-07T13:30:05.198Z,25.5
2022-09-07T13:31:18.046Z,25.6
2022-09-07T13:33:38.763Z,25.6
2022-09-07T13:34:47.635Z,25.6
2022-09-07T13:36:02.128Z,25.6
2022-09-07T13:37:06.375Z,25.6
2022-09-07T13:38:13.535Z,25.7
2022-09-07T13:39:22.167Z,25.8
2022-09-07T13:40:26.586Z,25.8
2022-09-07T13:41:32.135Z,25.7
2022-09-07T13:42:36.702Z,25.7
2022-09-07T13:43:41.411Z,25.8
2022-09-07T13:44:48.538Z,25.8
2022-09-07T13:45:58.923Z,25.8
2022-09-07T13:47:03.101Z,25.8
2022-09-07T13:48:19.062Z,25.8
2022-09-07T13:49:33.110Z,25.8
2022-09-07T13:50:42.914Z,25.5
2022-09-07T13:51:59.002Z,25.1
2022-09-07T13:53:09.506Z,25.4
2022-09-07T13:54:22.070Z,25.5
2022-09-07T13:55:31.634Z,25.5
2022-09-07T13:56:41.950Z,25.6
2022-09-07T13:57:54.730Z,25.5
2022-09-07T13:58:59.318Z,25.7
2022-09-07T14:00:11.638Z,25.7
2022-09-07T14:01:16.074Z,25.7
2022-09-07T14:02:20.414Z,25.7
2022-09-07T14:03:32.781Z,25.7
2022-09-07T14:04:37.202Z,25.6
2022-09-07T14:05:42.350Z,25.7
2022-09-07T14:06:46.842Z,25.8
2022-09-07T14:07:51.338Z,25.8
2022-09-07T14:08:55.886Z,25.7
2022-09-07T14:10:08.384Z,25.6
2022-09-07T14:11:20.834Z,25.7
2022-09-07T14:12:33.166Z,25.8
2022-09-07T14:13:44.295Z,25.8
2022-09-07T14:14:59.210Z,25.8
2022-09-07T14:16:13.890Z,25.8
2022-09-07T14:17:18.822Z,25.8
2022-09-07T14:18:25.086Z,25.8
2022-09-07T14:19:32.411Z,25.8
2022-09-07T14:20:46.375Z,25.8
2022-09-07T14:21:55.538Z,25.8
2022-09-07T14:23:02.786Z,25.9
2022-09-07T14:24:12.446Z,25.8
2022-09-07T14:25:19.890Z,25.8
2022-09-07T14:26:24.805Z,25.8
2022-09-07T14:27:29.698Z,25.8
2022-09-07T14:28:37.154Z,25.8
2022-09-07T14:29:42.214Z,25.8
2022-09-07T14:30:47.035Z,25.7
2022-09-07T14:32:55.348Z,25.7
2022-09-07T14:34:02.338Z,25.7
2022-09-07T14:35:06.742Z,25.7
2022-09-07T14:36:37.306Z,25.4
2022-09-07T14:37:18.942Z,25.4
2022-09-07T14:39:30.523Z,25.4
2022-09-07T14:40:35.074Z,25.3
2022-09-07T14:42:42.895Z,25
2022-09-07T14:43:47.926Z,25.1
2022-09-07T14:44:52.427Z,25
2022-09-07T14:46:06.949Z,25
2022-09-07T14:47:21.911Z,25.1
2022-09-07T14:48:32.457Z,25.2
2022-09-07T14:49:35.625Z,25.1
2022-09-07T14:50:44.522Z,25
2022-09-07T14:51:54.104Z,25.1
2022-09-07T14:54:05.685Z,25.2
2022-09-07T14:55:10.238Z,25.3
2022-09-07T14:56:25.190Z,25.2
2022-09-07T14:57:32.505Z,25.2
2022-09-07T14:58:36.866Z,25.1
2022-09-07T14:59:41.335Z,25.2
2022-09-07T15:00:45.959Z,25.3
2022-09-07T15:01:58.007Z,25.3
2022-09-07T15:03:12.850Z,25.3
2022-09-07T15:04:27.582Z,25.3
2022-09-07T15:05:31.765Z,25.3
2022-09-07T15:07:45.186Z,25.2
2022-09-07T15:08:49.513Z,25.3
2022-09-07T15:09:55.043Z,25.2
2022-09-07T15:12:29.887Z,25.4
2022-09-07T15:13:26.614Z,25.4
2022-09-07T15:14:31.182Z,25.4
2022-09-07T15:15:37.118Z,25.4
2022-09-07T15:16:40.675Z,25.4
2022-09-07T15:17:46.633Z,25.4
2022-09-07T15:18:51.825Z,25.4
2022-09-07T15:20:01.999Z,25.4
2022-09-07T15:21:12.694Z,25.4
2022-09-07T15:22:19.573Z,25.4
2022-09-07T15:23:24.163Z,25.4
2022-09-07T15:24:31.718Z,25.4
2022-09-07T15:25:36.518Z,25.4
2022-09-07T15:27:46.122Z,25.2
2022-09-07T15:29:55.565Z,25.1
2022-09-07T15:32:12.554Z,25.1
2022-09-07T15:33:23.129Z,25.1
2022-09-07T15:34:29.562Z,25.1
2022-09-07T15:35:45.099Z,25.1
2022-09-07T15:36:51.403Z,25
2022-09-07T15:38:05.354Z,25
2022-09-07T15:39:01.380Z,25
2022-09-07T15:40:29.052Z,25
2022-09-07T15:41:35.729Z,24.8
2022-09-07T15:43:45.599Z,24.8
2022-09-07T15:44:50.444Z,24.8
2022-09-07T15:47:50.492Z,24.8
2022-09-07T15:48:33.329Z,24.8
2022-09-07T15:49:39.526Z,24.7
2022-09-07T15:50:42.881Z,24.7
2022-09-07T15:52:54.747Z,24.7
2022-09-07T15:54:07.700Z,24.7
2022-09-07T15:55:03.772Z,24.6
2022-09-07T15:56:08.573Z,24.6